Time;durP1;ratioP1;P1;durP2;ratioP2;P2;SDS_P1;SDS_P2;PMS_P1;PMS_P2;Temp;Humidity;BMP_temperature;BMP_pressure;BME280_temperature;BME280_humidity;BME280_pressure;Samples;Min_cycle;Max_cycle;Signal;HPM_P1;HPM_P2
2022/02/14 00:00:10;;;;;;;16.27;15.10;;;8.00;99.90;;;;;;4996926;28;20854;-70
2022/02/14 00:02:38;;;;;;;15.83;14.70;;;8.00;99.90;;;;;;5020151;28;20473;-70
2022/02/14 00:05:05;;;;;;;19.80;17.70;;;8.00;99.90;;;;;;4995532;28;20464;-68
2022/02/14 00:07:34;;;;;;;17.23;15.53;;;8.00;99.90;;;;;;4997651;28;20470;-69
2022/02/14 00:10:00;;;;;;;22.20;16.33;;;8.00;99.90;;;;;;4994775;28;20466;-71
2022/02/14 00:12:27;;;;;;;16.43;15.33;;;8.00;99.90;;;;;;4996708;28;20474;-70
2022/02/14 00:14:55;;;;;;;17.70;16.10;;;8.00;99.90;;;;;;4997529;28;20500;-69
2022/02/14 00:17:22;;;;;;;16.63;15.37;;;8.10;99.90;;;;;;4998658;28;20831;-70
2022/02/14 00:19:52;;;;;;;16.07;14.43;;;8.10;99.90;;;;;;4994071;28;20486;-70
2022/02/14 00:22:21;;;;;;;16.67;15.27;;;8.10;99.90;;;;;;4997272;28;20526;-68
2022/02/14 00:24:50;;;;;;;16.87;15.47;;;8.10;99.90;;;;;;4994832;28;20469;-68
2022/02/14 00:27:18;;;;;;;17.53;15.97;;;7.90;99.90;;;;;;4998098;28;20465;-68
2022/02/14 00:29:45;;;;;;;16.10;15.00;;;7.90;99.90;;;;;;4999684;28;20466;-68
2022/02/14 00:32:12;;;;;;;16.50;15.23;;;7.90;99.90;;;;;;5005819;28;20470;-69
2022/02/14 00:34:39;;;;;;;17.30;15.90;;;7.90;99.90;;;;;;4995963;28;20810;-68
2022/02/14 00:37:06;;;;;;;16.60;15.40;;;7.90;99.90;;;;;;4999077;28;20470;-68
2022/02/14 00:39:33;;;;;;;17.40;15.80;;;7.90;99.90;;;;;;4999224;28;20494;-68
2022/02/14 00:42:01;;;;;;;17.27;15.93;;;7.90;99.90;;;;;;4995304;28;20851;-68
2022/02/14 00:44:29;;;;;;;17.40;15.77;;;7.90;99.90;;;;;;5000323;28;20472;-68
2022/02/14 00:46:56;;;;;;;16.47;15.23;;;7.90;99.90;;;;;;4997432;28;20462;-68
2022/02/14 00:49:24;;;;;;;16.17;15.07;;;7.90;99.90;;;;;;4997822;28;20514;-68
2022/02/14 00:51:51;;;;;;;19.20;15.80;;;7.90;99.90;;;;;;4998219;28;20479;-68
2022/02/14 00:54:17;;;;;;;16.13;14.90;;;7.80;99.90;;;;;;5008712;28;20464;-68
2022/02/14 00:56:44;;;;;;;17.13;15.90;;;7.80;99.90;;;;;;5001277;28;20464;-69
2022/02/14 00:59:12;;;;;;;17.20;15.67;;;7.90;99.90;;;;;;5004157;28;20886;-68
2022/02/14 01:01:40;;;;;;;16.40;15.20;;;7.80;99.90;;;;;;4997091;28;20481;-68
2022/02/14 01:04:07;;;;;;;16.27;15.17;;;7.80;99.90;;;;;;5001933;28;20560;-68
2022/02/14 01:06:34;;;;;;;16.27;15.27;;;7.80;99.90;;;;;;5002385;28;20678;-68
2022/02/14 01:09:01;;;;;;;16.53;15.33;;;7.80;99.90;;;;;;4997670;28;20458;-68
2022/02/14 01:11:28;;;;;;;16.73;15.37;;;7.80;99.90;;;;;;5003995;28;20865;-68
2022/02/14 01:13:56;;;;;;;16.13;15.00;;;7.80;99.90;;;;;;5000201;28;20492;-68
2022/02/14 01:16:25;;;;;;;16.40;15.20;;;7.80;99.90;;;;;;5000052;28;20829;-68
2022/02/14 01:18:51;;;;;;;17.50;16.20;;;7.90;99.90;;;;;;5001243;28;20464;-70
2022/02/14 01:21:19;;;;;;;17.27;15.90;;;7.80;99.90;;;;;;4996006;28;20580;-69
2022/02/14 01:23:46;;;;;;;16.33;14.80;;;7.80;99.90;;;;;;5001971;28;20472;-70
2022/02/14 01:26:13;;;;;;;18.53;15.77;;;7.90;99.90;;;;;;5002719;28;20489;-70
2022/02/14 01:28:40;;;;;;;16.97;15.47;;;7.90;99.90;;;;;;5002760;28;20462;-71
2022/02/14 01:31:06;;;;;;;15.20;14.40;;;7.90;99.90;;;;;;5018083;28;20461;-68
2022/02/14 01:33:34;;;;;;;17.37;15.60;;;8.00;99.90;;;;;;4998125;28;20473;-68
2022/02/14 01:36:01;;;;;;;16.80;15.73;;;8.00;99.90;;;;;;5001824;28;20473;-67
2022/02/14 01:38:28;;;;;;;16.30;15.17;;;8.00;99.90;;;;;;4998817;28;20990;-68
2022/02/14 01:40:56;;;;;;;17.10;15.70;;;8.00;99.90;;;;;;4998409;28;20516;-71
2022/02/14 01:43:24;;;;;;;17.07;15.37;;;8.00;99.90;;;;;;4997249;28;20463;-68
2022/02/14 01:45:52;;;;;;;15.87;14.87;;;8.00;99.90;;;;;;4998540;28;20673;-68
2022/02/14 01:48:19;;;;;;;15.83;14.90;;;8.00;99.90;;;;;;4997469;28;20486;-68
2022/02/14 01:50:47;;;;;;;15.80;14.50;;;8.00;99.90;;;;;;5004098;28;20935;-68
2022/02/14 01:53:16;;;;;;;15.67;14.77;;;8.00;99.90;;;;;;5001234;28;20462;-68
2022/02/14 01:55:43;;;;;;;16.13;15.17;;;7.90;99.90;;;;;;5000613;28;20519;-70
2022/02/14 01:58:11;;;;;;;16.70;15.20;;;7.90;99.90;;;;;;4999320;28;20469;-70
2022/02/14 02:00:38;;;;;;;16.00;14.70;;;7.90;99.90;;;;;;5016499;28;20519;-70
2022/02/14 02:03:04;;;;;;;16.60;15.37;;;7.90;99.90;;;;;;5001972;28;20469;-70
2022/02/14 02:05:32;;;;;;;17.27;15.73;;;7.90;99.90;;;;;;4998562;28;20551;-71
2022/02/14 02:08:01;;;;;;;16.93;15.80;;;7.90;99.90;;;;;;4999235;28;20473;-70
2022/02/14 02:10:28;;;;;;;16.20;15.20;;;7.90;99.90;;;;;;5002176;28;20473;-68
2022/02/14 02:12:56;;;;;;;15.80;14.70;;;7.90;99.90;;;;;;4998347;28;20470;-68
2022/02/14 02:15:24;;;;;;;16.77;15.10;;;8.00;99.90;;;;;;4997043;28;20508;-69
2022/02/14 02:17:51;;;;;;;15.90;14.90;;;8.00;99.90;;;;;;5007695;28;20466;-70
2022/02/14 02:20:19;;;;;;;16.20;15.00;;;8.00;99.90;;;;;;4999098;28;20551;-68
2022/02/14 02:22:48;;;;;;;16.13;14.90;;;8.00;99.90;;;;;;4996909;28;21031;-71
2022/02/14 02:25:16;;;;;;;16.10;14.83;;;8.00;99.90;;;;;;4997577;28;20975;-70
2022/02/14 02:27:44;;;;;;;16.60;15.30;;;8.00;99.90;;;;;;4998008;28;20473;-71
2022/02/14 02:30:14;;;;;;;16.10;15.10;;;8.00;99.90;;;;;;4997326;28;20492;-68
2022/02/14 02:32:42;;;;;;;17.23;15.80;;;7.90;99.90;;;;;;4994506;28;20474;-68
2022/02/14 02:35:10;;;;;;;17.10;16.07;;;7.90;99.90;;;;;;5001169;28;20496;-68
2022/02/14 02:37:37;;;;;;;20.73;15.93;;;7.90;99.90;;;;;;4991103;28;20477;-68
2022/02/14 02:40:06;;;;;;;16.43;15.33;;;7.80;99.90;;;;;;4997300;28;20485;-68
2022/02/14 02:42:34;;;;;;;16.63;15.20;;;7.80;99.90;;;;;;4993431;28;20468;-68
2022/02/14 02:45:01;;;;;;;16.43;14.83;;;7.80;99.90;;;;;;5000112;28;20458;-68
2022/02/14 02:47:29;;;;;;;17.00;15.80;;;7.70;99.90;;;;;;4989782;28;20609;-68
2022/02/14 02:49:56;;;;;;;18.00;16.40;;;7.70;99.90;;;;;;5004248;28;20512;-69
2022/02/14 02:52:24;;;;;;;17.17;15.90;;;7.70;99.90;;;;;;5000432;28;20474;-68
2022/02/14 02:54:55;;;;;;;16.60;15.40;;;7.80;99.90;;;;;;4998137;28;20472;-68
2022/02/14 02:57:23;;;;;;;16.30;15.27;;;7.80;99.90;;;;;;4994613;28;20474;-68
2022/02/14 02:59:52;;;;;;;17.10;15.47;;;7.80;99.90;;;;;;4999511;28;20527;-69
2022/02/14 03:02:19;;;;;;;20.00;15.50;;;7.80;99.90;;;;;;5004953;28;20546;-71
2022/02/14 03:04:46;;;;;;;16.57;15.50;;;7.80;99.90;;;;;;4999523;28;20473;-71
2022/02/14 03:07:13;;;;;;;16.60;15.50;;;7.80;99.90;;;;;;5007945;28;20472;-71
2022/02/14 03:09:41;;;;;;;18.10;15.43;;;7.90;99.90;;;;;;5000234;28;20473;-68
2022/02/14 03:12:08;;;;;;;16.47;15.20;;;7.90;99.90;;;;;;4997979;28;20537;-68
2022/02/14 03:14:38;;;;;;;15.90;15.00;;;8.00;99.90;;;;;;4990510;28;20531;-68
2022/02/14 03:17:09;;;;;;;16.67;15.50;;;8.00;99.90;;;;;;5003305;28;20466;-68
2022/02/14 03:19:36;;;;;;;15.50;14.60;;;8.00;99.90;;;;;;4992961;28;20500;-69
2022/02/14 03:22:04;;;;;;;15.70;14.80;;;8.00;99.90;;;;;;4998157;28;20462;-68
2022/02/14 03:24:30;;;;;;;23.27;16.40;;;8.00;99.90;;;;;;4992454;28;20544;-68
2022/02/14 03:26:57;;;;;;;17.07;15.43;;;8.00;99.90;;;;;;4996680;28;20467;-68
2022/02/14 03:29:25;;;;;;;16.90;15.80;;;7.90;99.90;;;;;;4994381;28;20466;-70
2022/02/14 03:31:52;;;;;;;17.20;15.80;;;7.90;99.90;;;;;;5016784;28;21024;-68
2022/02/14 03:34:21;;;;;;;17.37;15.60;;;7.90;99.90;;;;;;4996399;28;20869;-68
2022/02/14 03:36:48;;;;;;;16.07;15.23;;;7.90;99.90;;;;;;4995039;28;20523;-68
2022/02/14 03:39:15;;;;;;;16.37;15.10;;;7.90;99.90;;;;;;4998391;28;20477;-69
2022/02/14 03:41:42;;;;;;;19.33;15.70;;;7.80;99.90;;;;;;4995415;28;20507;-70
2022/02/14 03:44:09;;;;;;;16.40;15.30;;;7.90;99.90;;;;;;4996600;28;20469;-68
2022/02/14 03:46:36;;;;;;;17.20;15.73;;;8.00;99.90;;;;;;4994778;28;20466;-69
2022/02/14 03:49:04;;;;;;;16.70;15.67;;;8.00;99.90;;;;;;4996469;28;20830;-68
2022/02/14 03:51:34;;;;;;;17.03;15.50;;;7.90;99.90;;;;;;4995959;28;20544;-68
2022/02/14 03:54:01;;;;;;;16.50;15.47;;;8.10;99.90;;;;;;4998069;28;20461;-68
2022/02/14 03:56:28;;;;;;;17.10;15.70;;;8.10;99.90;;;;;;4997280;28;20462;-68
2022/02/14 03:58:55;;;;;;;17.23;16.23;;;8.00;99.90;;;;;;5000406;28;20462;-68
2022/02/14 04:01:22;;;;;;;17.83;16.13;;;8.00;99.90;;;;;;5024170;28;20482;-69
2022/02/14 04:03:49;;;;;;;16.90;15.70;;;8.00;99.90;;;;;;4996781;28;21024;-69
2022/02/14 04:06:16;;;;;;;15.73;14.73;;;8.00;99.90;;;;;;4995846;28;20458;-69
2022/02/14 04:08:45;;;;;;;16.13;14.97;;;8.10;99.90;;;;;;4996162;28;20792;-69
2022/02/14 04:11:12;;;;;;;17.47;16.20;;;8.10;99.90;;;;;;5005624;28;20775;-71
2022/02/14 04:13:39;;;;;;;16.63;15.43;;;8.20;99.90;;;;;;4996369;28;20501;-69
2022/02/14 04:16:06;;;;;;;17.30;16.07;;;8.20;99.90;;;;;;4997553;28;20477;-68
2022/02/14 04:18:33;;;;;;;16.53;15.53;;;8.30;99.90;;;;;;4998023;28;21092;-68
2022/02/14 04:21:00;;;;;;;16.07;15.07;;;8.50;99.90;;;;;;5004038;28;20497;-69
2022/02/14 04:23:27;;;;;;;15.80;14.57;;;8.70;99.90;;;;;;4998946;28;20467;-68
2022/02/14 04:25:56;;;;;;;16.00;15.00;;;8.80;99.90;;;;;;5000766;28;20526;-71
2022/02/14 04:28:23;;;;;;;16.23;15.17;;;8.80;99.90;;;;;;5000599;28;20839;-68
2022/02/14 04:30:50;;;;;;;15.90;15.10;;;8.90;99.90;;;;;;5002155;28;20505;-68
2022/02/14 04:33:17;;;;;;;16.43;15.07;;;8.90;99.90;;;;;;4997630;28;20462;-68
2022/02/14 04:35:44;;;;;;;19.77;14.90;;;8.90;99.90;;;;;;5005028;28;20469;-70
2022/02/14 04:38:11;;;;;;;16.60;15.03;;;8.90;99.90;;;;;;5000639;28;20465;-69
2022/02/14 04:40:39;;;;;;;17.00;16.00;;;9.00;99.90;;;;;;4995453;28;20478;-68
2022/02/14 04:43:08;;;;;;;15.93;14.93;;;8.90;99.90;;;;;;4993640;28;20553;-68
2022/02/14 04:45:35;;;;;;;16.77;15.50;;;9.00;99.90;;;;;;5002980;28;20465;-68
2022/02/14 04:48:02;;;;;;;16.60;15.60;;;9.00;99.90;;;;;;5000597;28;21004;-69
2022/02/14 04:50:29;;;;;;;16.80;15.80;;;9.10;99.90;;;;;;4996734;28;20902;-70
2022/02/14 04:52:56;;;;;;;16.30;15.20;;;9.10;99.90;;;;;;5002133;28;20462;-68
2022/02/14 04:55:24;;;;;;;17.07;15.60;;;9.10;99.90;;;;;;5000190;28;20872;-68
2022/02/14 04:57:53;;;;;;;15.83;14.90;;;9.20;99.90;;;;;;5002795;28;20477;-68
2022/02/14 05:00:22;;;;;;;15.90;15.10;;;9.20;99.90;;;;;;4981379;28;21031;-70
2022/02/14 05:02:49;;;;;;;15.83;14.83;;;9.30;99.90;;;;;;4986907;28;20456;-69
2022/02/14 05:05:16;;;;;;;15.67;14.57;;;9.40;99.90;;;;;;4998692;28;20465;-71
2022/02/14 05:07:45;;;;;;;15.43;14.60;;;9.50;99.90;;;;;;4993789;28;20957;-71
2022/02/14 05:10:12;;;;;;;16.10;15.20;;;9.50;99.90;;;;;;4979022;28;20497;-69
2022/02/14 05:12:39;;;;;;;16.37;15.37;;;9.60;99.90;;;;;;4978221;28;20450;-68
2022/02/14 05:15:06;;;;;;;16.23;15.30;;;9.70;99.90;;;;;;4978248;28;20503;-70
2022/02/14 05:17:35;;;;;;;16.33;15.07;;;9.80;99.90;;;;;;4979395;28;20490;-70
2022/02/14 05:20:03;;;;;;;16.07;15.07;;;9.90;99.90;;;;;;4978110;28;21213;-69
2022/02/14 05:22:30;;;;;;;15.97;14.87;;;9.90;99.90;;;;;;4978332;28;20502;-68
2022/02/14 05:24:57;;;;;;;15.47;14.50;;;9.90;99.90;;;;;;4978386;28;20473;-69
2022/02/14 05:27:25;;;;;;;15.20;14.30;;;10.00;99.90;;;;;;4978171;28;20462;-68
2022/02/14 05:29:52;;;;;;;15.67;14.60;;;10.00;99.90;;;;;;4977587;28;20924;-69
2022/02/14 05:32:18;;;;;;;15.70;14.80;;;10.00;99.90;;;;;;4979824;28;20490;-68
2022/02/14 05:34:47;;;;;;;17.47;15.90;;;10.00;99.90;;;;;;4978642;28;21350;-68
2022/02/14 05:37:15;;;;;;;15.80;15.00;;;10.00;99.90;;;;;;4979472;28;20524;-69
2022/02/14 05:39:44;;;;;;;16.17;15.17;;;10.00;99.90;;;;;;4978438;28;20931;-71
2022/02/14 05:42:11;;;;;;;15.97;15.17;;;10.00;99.90;;;;;;4975512;28;20500;-69
2022/02/14 05:44:38;;;;;;;16.30;15.30;;;10.00;99.90;;;;;;4978168;28;20469;-68
2022/02/14 05:47:05;;;;;;;16.87;15.73;;;10.00;99.90;;;;;;4997897;28;20473;-68
2022/02/14 05:49:33;;;;;;;17.63;16.33;;;10.10;99.90;;;;;;4996546;28;20495;-70
2022/02/14 05:52:01;;;;;;;16.80;15.70;;;10.10;99.90;;;;;;4993647;28;20470;-68
2022/02/14 05:54:28;;;;;;;16.60;15.70;;;10.10;99.90;;;;;;4990159;28;20975;-70
2022/02/14 05:56:55;;;;;;;17.23;15.97;;;10.00;99.90;;;;;;4977321;28;20463;-70
2022/02/14 05:59:22;;;;;;;18.93;17.70;;;10.00;99.90;;;;;;4977089;28;20557;-71
2022/02/14 06:01:49;;;;;;;17.57;16.37;;;10.00;99.90;;;;;;4976915;28;20493;-69
2022/02/14 06:04:15;;;;;;;17.00;16.00;;;9.90;99.90;;;;;;4976587;28;20466;-70
2022/02/14 06:06:43;;;;;;;16.87;15.47;;;9.90;99.90;;;;;;4974553;28;20486;-71
2022/02/14 06:09:12;;;;;;;21.80;20.20;;;9.90;99.90;;;;;;4977171;28;20914;-68
2022/02/14 06:11:40;;;;;;;20.03;18.40;;;9.80;99.90;;;;;;4977467;28;20534;-69
2022/02/14 06:14:06;;;;;;;20.63;18.93;;;9.70;99.90;;;;;;4977885;28;20930;-70
2022/02/14 06:16:33;;;;;;;16.40;15.50;;;9.70;99.90;;;;;;4976566;28;20484;-71
2022/02/14 06:19:00;;;;;;;16.50;15.60;;;9.70;99.90;;;;;;4978455;28;20460;-69
2022/02/14 06:21:27;;;;;;;16.17;15.37;;;9.70;99.90;;;;;;4977862;28;20490;-69
2022/02/14 06:23:54;;;;;;;16.87;15.67;;;9.80;99.90;;;;;;4978474;28;20484;-69
2022/02/14 06:26:23;;;;;;;16.47;15.30;;;9.70;99.90;;;;;;4976285;28;20474;-69
2022/02/14 06:28:49;;;;;;;15.83;15.00;;;9.70;99.90;;;;;;4976880;28;20493;-70
2022/02/14 06:31:16;;;;;;;15.60;14.70;;;9.60;99.90;;;;;;4975854;28;20473;-69
2022/02/14 06:33:43;;;;;;;17.00;15.80;;;9.60;99.90;;;;;;4978584;28;21423;-70
2022/02/14 06:36:10;;;;;;;15.73;14.93;;;9.60;99.90;;;;;;4976084;28;20747;-68
2022/02/14 06:38:37;;;;;;;16.07;15.27;;;9.60;99.90;;;;;;4977224;28;20979;-69
2022/02/14 06:41:04;;;;;;;16.47;15.30;;;9.60;99.90;;;;;;4977419;28;20536;-68
2022/02/14 06:43:33;;;;;;;15.23;14.50;;;9.60;99.90;;;;;;4977651;28;20461;-70
2022/02/14 06:45:59;;;;;;;15.80;15.00;;;9.60;99.90;;;;;;4976401;28;20801;-71
2022/02/14 06:48:26;;;;;;;15.97;14.87;;;9.70;99.90;;;;;;4978813;28;20465;-69
2022/02/14 06:50:54;;;;;;;15.80;15.00;;;9.80;99.90;;;;;;4976665;28;20474;-71
2022/02/14 06:53:21;;;;;;;15.97;15.17;;;9.80;99.90;;;;;;4974828;28;20516;-69
2022/02/14 06:55:48;;;;;;;15.90;15.10;;;9.90;99.90;;;;;;4976165;28;20791;-69
2022/02/14 06:58:15;;;;;;;16.53;15.10;;;9.90;99.90;;;;;;4977054;28;20469;-69
2022/02/14 07:00:43;;;;;;;16.40;15.37;;;10.00;99.90;;;;;;4972881;28;21495;-70
2022/02/14 07:03:11;;;;;;;16.10;15.30;;;10.10;99.90;;;;;;4995572;28;20531;-69
2022/02/14 07:05:40;;;;;;;15.90;15.00;;;10.10;99.90;;;;;;4994433;28;20462;-69
2022/02/14 07:08:08;;;;;;;16.00;14.87;;;10.10;99.90;;;;;;4990671;28;21273;-69
2022/02/14 07:10:35;;;;;;;16.70;15.07;;;10.20;99.90;;;;;;4975312;28;20454;-69
2022/02/14 07:13:02;;;;;;;16.43;15.33;;;10.30;99.90;;;;;;4974810;28;20968;-71
2022/02/14 07:15:29;;;;;;;17.00;15.90;;;10.30;99.90;;;;;;4975228;28;20496;-69
2022/02/14 07:17:57;;;;;;;15.47;14.70;;;10.30;99.90;;;;;;4976537;28;20458;-70
2022/02/14 07:20:25;;;;;;;16.00;15.27;;;10.40;99.90;;;;;;4974748;28;20523;-71
2022/02/14 07:22:52;;;;;;;15.37;14.60;;;10.40;99.90;;;;;;4974249;28;21174;-69
2022/02/14 07:25:19;;;;;;;15.77;14.97;;;10.40;99.90;;;;;;4975369;28;20830;-69
2022/02/14 07:27:46;;;;;;;16.57;15.37;;;10.40;99.90;;;;;;4974410;28;20858;-69
2022/02/14 07:30:13;;;;;;;15.40;14.53;;;10.40;99.90;;;;;;4974628;28;20534;-70
2022/02/14 07:32:41;;;;;;;15.93;15.10;;;10.50;99.90;;;;;;4974029;28;20828;-70
2022/02/14 07:35:10;;;;;;;16.60;15.20;;;10.50;99.90;;;;;;4975068;28;21050;-69
2022/02/14 07:37:38;;;;;;;17.20;16.07;;;10.50;99.90;;;;;;4975325;28;20575;-70
2022/02/14 07:40:07;;;;;;;16.73;15.70;;;10.50;99.90;;;;;;4974605;28;20563;-70
2022/02/14 07:42:33;;;;;;;16.00;15.00;;;10.50;99.90;;;;;;4972271;28;20496;-69
2022/02/14 07:45:00;;;;;;;15.77;14.97;;;10.60;99.90;;;;;;4975507;28;20539;-69
2022/02/14 07:47:27;;;;;;;16.27;15.27;;;10.60;99.90;;;;;;4972934;28;20607;-69
2022/02/14 07:49:54;;;;;;;16.10;15.30;;;10.70;99.90;;;;;;4975560;28;20465;-69
2022/02/14 07:52:23;;;;;;;16.10;15.00;;;10.70;99.90;;;;;;4974259;28;20965;-71
2022/02/14 07:54:51;;;;;;;15.70;14.90;;;10.70;99.90;;;;;;4973984;28;21208;-69
2022/02/14 07:57:17;;;;;;;15.10;14.40;;;10.70;99.90;;;;;;4974906;28;20582;-70
2022/02/14 07:59:44;;;;;;;15.70;14.90;;;10.70;99.90;;;;;;4974868;28;20473;-69
2022/02/14 08:02:12;;;;;;;16.43;15.40;;;10.80;99.90;;;;;;4974618;28;20493;-70
2022/02/14 08:04:39;;;;;;;16.10;15.10;;;10.90;99.90;;;;;;4973483;28;20458;-69
2022/02/14 08:07:06;;;;;;;16.50;15.60;;;10.90;99.90;;;;;;4974607;28;20485;-71
2022/02/14 08:09:35;;;;;;;16.40;15.50;;;11.00;99.90;;;;;;4973375;28;21488;-69
2022/02/14 08:12:04;;;;;;;17.10;15.83;;;10.90;99.90;;;;;;4973390;28;21173;-70
2022/02/14 08:14:31;;;;;;;16.67;15.57;;;10.90;99.90;;;;;;4973894;28;20658;-71
2022/02/14 08:16:58;;;;;;;16.10;15.30;;;10.90;99.90;;;;;;4974308;28;20467;-69
2022/02/14 08:19:25;;;;;;;15.73;14.83;;;10.90;99.90;;;;;;4975914;28;20472;-71
2022/02/14 08:21:52;;;;;;;15.90;14.90;;;10.90;99.90;;;;;;4974197;28;20501;-71
2022/02/14 08:24:19;;;;;;;16.60;15.70;;;11.00;99.90;;;;;;4975495;28;20464;-69
2022/02/14 08:26:48;;;;;;;15.30;14.50;;;11.00;99.90;;;;;;4974999;28;20569;-69
2022/02/14 08:29:14;;;;;;;16.20;15.30;;;11.10;99.90;;;;;;4975855;28;20474;-71
2022/02/14 08:31:42;;;;;;;15.47;14.57;;;11.20;99.90;;;;;;4974312;28;20465;-69
2022/02/14 08:34:09;;;;;;;15.60;14.80;;;11.30;99.90;;;;;;4974285;28;20650;-70
2022/02/14 08:36:36;;;;;;;15.83;14.97;;;11.20;99.90;;;;;;4976180;28;20981;-70
2022/02/14 08:39:04;;;;;;;15.93;15.10;;;11.30;99.90;;;;;;4975079;28;20470;-69
2022/02/14 08:41:31;;;;;;;15.37;14.67;;;11.40;99.90;;;;;;4974614;28;20477;-71
2022/02/14 08:43:59;;;;;;;15.73;14.93;;;11.40;99.90;;;;;;4974783;28;20462;-69
2022/02/14 08:46:27;;;;;;;15.23;14.33;;;11.40;99.90;;;;;;4974906;28;20945;-69
2022/02/14 08:48:55;;;;;;;16.00;15.13;;;11.30;99.90;;;;;;4975415;28;20502;-71
2022/02/14 08:51:23;;;;;;;16.07;15.23;;;11.40;99.90;;;;;;4974756;28;20463;-69
2022/02/14 08:53:50;;;;;;;16.00;15.17;;;11.30;99.90;;;;;;4974787;28;20477;-70
2022/02/14 08:56:18;;;;;;;15.83;15.03;;;11.40;99.90;;;;;;4974877;28;20477;-70
2022/02/14 08:58:46;;;;;;;15.40;14.60;;;11.40;99.90;;;;;;4975066;28;20480;-69
2022/02/14 09:01:16;;;;;;;15.73;14.83;;;11.40;99.90;;;;;;4974390;28;21632;-69
2022/02/14 09:03:43;;;;;;;17.30;16.10;;;11.30;99.90;;;;;;4975392;28;20546;-70
2022/02/14 09:06:11;;;;;;;15.47;14.67;;;11.40;99.90;;;;;;4977858;28;20853;-70
2022/02/14 09:08:37;;;;;;;15.23;14.43;;;11.40;99.90;;;;;;4977682;28;21223;-70
2022/02/14 09:11:05;;;;;;;15.37;14.20;;;11.40;99.90;;;;;;4977903;28;20964;-69
2022/02/14 09:13:36;;;;;;;15.83;15.03;;;11.50;99.90;;;;;;4977428;28;20916;-71
2022/02/14 09:16:05;;;;;;;15.67;14.77;;;11.40;99.90;;;;;;4978116;28;20559;-70
2022/02/14 09:18:34;;;;;;;19.03;17.93;;;11.50;99.90;;;;;;4999343;28;20461;-70
2022/02/14 09:21:01;;;;;;;22.77;21.03;;;11.40;99.90;;;;;;4986897;28;20476;-70
2022/02/14 09:23:29;;;;;;;24.83;23.13;;;11.20;99.90;;;;;;4977488;28;20512;-69
2022/02/14 09:25:57;;;;;;;25.23;23.43;;;10.90;99.90;;;;;;4977896;28;20984;-68
2022/02/14 09:28:24;;;;;;;29.53;27.23;;;10.80;99.90;;;;;;4978447;28;20469;-69
2022/02/14 09:30:51;;;;;;;30.40;27.90;;;10.60;99.90;;;;;;4977048;28;20469;-70
2022/02/14 09:33:18;;;;;;;31.57;29.17;;;10.40;99.90;;;;;;4976256;28;20551;-69
2022/02/14 09:35:47;;;;;;;30.60;28.40;;;10.20;99.90;;;;;;4976444;28;20465;-69
2022/02/14 09:38:15;;;;;;;29.37;27.00;;;10.10;99.90;;;;;;4977360;28;20558;-70
2022/02/14 09:40:42;;;;;;;29.20;27.10;;;10.00;99.90;;;;;;4976914;28;20468;-70
2022/02/14 09:43:11;;;;;;;28.00;25.90;;;9.90;99.90;;;;;;4976932;28;20869;-70
2022/02/14 09:45:38;;;;;;;27.33;25.43;;;9.80;99.90;;;;;;4977901;28;21087;-70
2022/02/14 09:48:06;;;;;;;22.33;20.93;;;9.80;99.90;;;;;;4976565;28;20804;-71
2022/02/14 09:50:35;;;;;;;20.23;18.83;;;9.80;99.90;;;;;;4976599;28;20514;-70
2022/02/14 09:53:06;;;;;;;17.70;16.77;;;9.90;99.90;;;;;;4976609;28;20906;-70
2022/02/14 09:55:34;;;;;;;17.80;16.70;;;10.00;99.90;;;;;;4976082;28;20461;-71
2022/02/14 09:58:01;;;;;;;17.13;16.13;;;10.20;99.90;;;;;;4976673;28;20458;-70
2022/02/14 10:00:28;;;;;;;16.47;15.20;;;10.20;99.90;;;;;;4976852;28;21070;-69
2022/02/14 10:03:14;;;;;;;16.13;15.33;;;10.40;99.90;;;;;;4976643;28;20502;-71
2022/02/14 10:05:46;;;;;;;16.93;15.83;;;10.60;99.90;;;;;;4976826;28;20472;-71
2022/02/14 10:08:20;;;;;;;16.60;15.60;;;10.60;99.90;;;;;;4978042;28;20570;-70
2022/02/14 10:10:48;;;;;;;17.30;16.40;;;10.50;99.90;;;;;;4976863;28;21062;-71
2022/02/14 10:13:30;;;;;;;17.47;16.33;;;10.30;99.90;;;;;;4976273;28;20619;-71
2022/02/14 10:15:57;;;;;;;16.03;15.13;;;10.20;99.90;;;;;;4976527;28;20493;-71
2022/02/14 10:18:31;;;;;;;16.77;15.87;;;10.20;99.90;;;;;;4978395;28;20465;-70
2022/02/14 10:21:22;;;;;;;16.23;15.30;;;10.30;99.90;;;;;;4981862;28;20460;-72
2022/02/14 10:24:16;;;;;;;16.83;15.83;;;10.30;99.90;;;;;;4974933;28;20500;-70
2022/02/14 10:26:45;;;;;;;15.73;15.00;;;10.40;99.90;;;;;;4967355;28;20996;-71
2022/02/14 10:29:19;;;;;;;16.13;15.23;;;10.50;99.90;;;;;;4976046;28;20843;-70
2022/02/14 10:31:48;;;;;;;15.80;15.00;;;10.80;99.90;;;;;;4976052;28;21202;-69
2022/02/14 10:34:15;;;;;;;15.83;15.03;;;11.00;99.90;;;;;;4976125;28;20479;-69
2022/02/14 10:36:44;;;;;;;15.20;14.50;;;11.00;99.90;;;;;;4975725;28;20465;-71
2022/02/14 10:39:15;;;;;;;16.13;15.10;;;11.20;99.90;;;;;;4976091;28;20706;-71
2022/02/14 10:41:44;;;;;;;16.10;15.30;;;11.30;99.90;;;;;;4972343;28;20472;-70
2022/02/14 10:44:14;;;;;;;16.10;15.10;;;11.50;99.90;;;;;;4976901;28;20879;-70
2022/02/14 10:46:41;;;;;;;16.20;15.40;;;11.40;99.90;;;;;;4976370;28;20464;-71
2022/02/14 10:49:09;;;;;;;16.27;15.37;;;11.10;99.90;;;;;;4977054;28;20478;-70
2022/02/14 10:51:36;;;;;;;15.83;15.03;;;11.20;99.90;;;;;;4975677;28;20542;-71
2022/02/14 10:54:05;;;;;;;16.20;15.30;;;11.40;99.90;;;;;;4983332;28;20473;-71
2022/02/14 10:56:41;;;;;;;15.77;14.77;;;11.70;99.90;;;;;;4989780;28;21037;-72
2022/02/14 10:59:10;;;;;;;16.30;15.33;;;12.00;99.90;;;;;;4974196;28;21154;-70
2022/02/14 11:01:39;;;;;;;15.70;14.80;;;11.70;99.90;;;;;;4969502;28;20490;-70
2022/02/14 11:04:07;;;;;;;15.07;14.37;;;11.90;99.90;;;;;;4971723;28;20498;-70
2022/02/14 11:06:38;;;;;;;15.37;14.57;;;12.00;99.90;;;;;;4971201;28;20454;-70
2022/02/14 11:09:06;;;;;;;15.20;14.40;;;11.90;99.90;;;;;;4972377;28;20474;-69
2022/02/14 11:11:36;;;;;;;15.27;14.33;;;12.60;99.90;;;;;;4971482;28;20469;-70
2022/02/14 11:14:05;;;;;;;14.73;14.03;;;12.50;99.90;;;;;;4972072;28;20991;-69
2022/02/14 11:16:37;;;;;;;15.50;14.80;;;12.50;99.90;;;;;;4972441;28;20475;-72
2022/02/14 11:19:06;;;;;;;14.57;13.87;;;12.90;99.90;;;;;;4970734;28;20913;-72
2022/02/14 11:21:34;;;;;;;15.70;14.70;;;13.00;99.90;;;;;;4968315;28;20563;-70
2022/02/14 11:24:11;;;;;;;15.00;14.13;;;12.70;99.90;;;;;;4968774;28;20940;-71
2022/02/14 11:26:49;;;;;;;14.60;13.90;;;12.90;99.90;;;;;;4970677;28;20996;-70
2022/02/14 11:29:27;;;;;;;14.53;13.90;;;12.80;99.90;;;;;;4970091;28;21316;-73
2022/02/14 11:32:15;;;;;;;14.80;13.97;;;12.50;99.90;;;;;;4968918;28;20478;-72
2022/02/14 11:35:02;;;;;;;14.77;13.70;;;13.00;99.90;;;;;;4969576;28;20731;-73
2022/02/14 11:37:51;;;;;;;14.67;14.07;;;13.20;99.90;;;;;;4970128;28;20900;-69
2022/02/14 11:40:39;;;;;;;15.40;14.50;;;13.30;99.90;;;;;;4969770;28;20961;-70
2022/02/14 11:43:11;;;;;;;14.83;14.13;;;13.50;99.90;;;;;;4970162;28;20966;-70
2022/02/14 11:45:41;;;;;;;15.60;14.70;;;12.80;99.90;;;;;;4969441;28;20474;-72
2022/02/14 11:48:25;;;;;;;15.70;14.97;;;12.20;99.90;;;;;;4969280;28;21040;-71
2022/02/14 11:51:05;;;;;;;15.97;15.17;;;11.90;99.90;;;;;;4969369;28;20472;-71
2022/02/14 11:53:34;;;;;;;15.30;14.60;;;11.80;99.90;;;;;;4969211;28;20477;-70
2022/02/14 11:56:30;;;;;;;15.63;14.83;;;11.60;99.90;;;;;;4968565;28;20462;-70
2022/02/14 11:59:10;;;;;;;16.10;15.20;;;11.40;99.90;;;;;;4969173;28;20469;-71
2022/02/14 12:01:59;;;;;;;15.70;14.90;;;11.30;99.90;;;;;;4968821;28;20480;-70
2022/02/14 12:04:46;;;;;;;15.87;14.97;;;11.30;99.90;;;;;;4968602;28;20594;-70
2022/02/14 12:07:24;;;;;;;15.83;15.00;;;11.30;99.90;;;;;;4970023;28;20474;-68
2022/02/14 12:10:22;;;;;;;15.90;15.10;;;11.20;99.90;;;;;;4970614;28;20565;-69
2022/02/14 12:13:24;;;;;;;15.50;14.70;;;11.30;99.90;;;;;;4968939;28;20462;-72
2022/02/14 12:21:27;;;;;;;15.00;14.30;;;12.40;99.90;;;;;;4969232;28;20484;-71
2022/02/14 12:23:58;;;;;;;16.23;15.33;;;12.60;99.90;;;;;;4969736;28;21007;-69
2022/02/14 12:26:28;;;;;;;16.37;15.37;;;12.20;99.90;;;;;;4970313;28;20461;-70
2022/02/14 12:31:48;;;;;;;15.53;14.73;;;12.90;99.90;;;;;;4969116;28;20464;-71
2022/02/14 12:34:27;;;;;;;15.70;14.90;;;13.70;99.90;;;;;;4969252;28;20475;-70
2022/02/14 12:36:55;;;;;;;15.27;14.50;;;14.10;99.90;;;;;;4968938;28;20947;-70
2022/02/14 12:39:34;;;;;;;15.87;14.90;;;13.80;99.90;;;;;;4971949;28;20930;-70
2022/02/14 12:42:19;;;;;;;15.87;14.87;;;14.10;99.90;;;;;;4972078;28;20880;-70
2022/02/14 12:44:46;;;;;;;16.53;15.43;;;13.50;99.90;;;;;;4973068;28;20493;-71
2022/02/14 12:47:15;;;;;;;16.73;15.63;;;13.30;99.90;;;;;;4974281;28;20684;-70
2022/02/14 12:50:01;;;;;;;16.10;15.30;;;14.00;99.90;;;;;;4972139;28;21130;-70